Terminal Aerodrome Forecast
Issued by NWS Paducah, KY

Home | Current Version | Previous Version | Graphics & Text | Print | Product List | Glossary On
Versions: 1 2 3 4 5 6 7 8 9 10 11 12 13 14 15 16 17 18 19
000
FTUS43 KPAH 230520
TAFPAH
TAF
KPAH 230520Z 2306/2406 06010KT 4SM -SHRA BR OVC010
     FM231000 08010KT 5SM -SHRA BR OVC008
     FM231500 09008KT P6SM OVC012=

USA.gov is the U.S. government's official web portal to all federal, state and local government web resources and services.